sensor_id;sensor_type;location;lat;lon;timestamp;pressure;altitude;pressure_sealevel;temperature;humidity
49541;BME280;35432;43.566;1.398;2023-02-04T00:00:45;101806.09;;;2.56;70.78
49541;BME280;35432;43.566;1.398;2023-02-04T00:03:12;101802.50;;;2.54;70.47
49541;BME280;35432;43.566;1.398;2023-02-04T00:05:39;101803.22;;;2.52;71.07
49541;BME280;35432;43.566;1.398;2023-02-04T00:08:04;101809.97;;;2.48;71.09
49541;BME280;35432;43.566;1.398;2023-02-04T00:10:30;101808.97;;;2.46;71.23
49541;BME280;35432;43.566;1.398;2023-02-04T00:12:55;101816.63;;;2.43;70.77
49541;BME280;35432;43.566;1.398;2023-02-04T00:15:20;101814.75;;;2.40;71.09
49541;BME280;35432;43.566;1.398;2023-02-04T00:17:46;101816.28;;;2.37;71.05
49541;BME280;35432;43.566;1.398;2023-02-04T00:20:11;101819.53;;;2.33;70.89
49541;BME280;35432;43.566;1.398;2023-02-04T00:22:37;101824.66;;;2.31;71.05
49541;BME280;35432;43.566;1.398;2023-02-04T00:25:02;101822.69;;;2.27;70.25
49541;BME280;35432;43.566;1.398;2023-02-04T00:27:27;101820.75;;;2.23;70.57
49541;BME280;35432;43.566;1.398;2023-02-04T00:29:53;101833.47;;;2.18;70.97
49541;BME280;35432;43.566;1.398;2023-02-04T00:32:18;101828.09;;;2.15;71.23
49541;BME280;35432;43.566;1.398;2023-02-04T00:34:44;101817.53;;;2.12;70.49
49541;BME280;35432;43.566;1.398;2023-02-04T00:37:09;101828.75;;;2.11;70.50
49541;BME280;35432;43.566;1.398;2023-02-04T00:39:34;101834.75;;;2.10;71.10
49541;BME280;35432;43.566;1.398;2023-02-04T00:42:00;101833.78;;;2.08;70.62
49541;BME280;35432;43.566;1.398;2023-02-04T00:44:25;101831.88;;;2.05;71.07
49541;BME280;35432;43.566;1.398;2023-02-04T00:46:51;101838.78;;;2.05;71.20
49541;BME280;35432;43.566;1.398;2023-02-04T00:49:16;101840.50;;;2.04;70.84
49541;BME280;35432;43.566;1.398;2023-02-04T00:51:41;101830.09;;;2.04;71.29
49541;BME280;35432;43.566;1.398;2023-02-04T00:54:11;101838.78;;;2.05;71.39
49541;BME280;35432;43.566;1.398;2023-02-04T00:56:36;101835.41;;;2.06;71.21
49541;BME280;35432;43.566;1.398;2023-02-04T00:59:02;101835.41;;;2.06;70.98
49541;BME280;35432;43.566;1.398;2023-02-04T01:01:28;101833.69;;;2.06;70.76
49541;BME280;35432;43.566;1.398;2023-02-04T01:03:53;101839.78;;;2.07;71.23
49541;BME280;35432;43.566;1.398;2023-02-04T01:06:19;101833.78;;;2.08;71.12
49541;BME280;35432;43.566;1.398;2023-02-04T01:08:44;101834.59;;;2.07;71.00
49541;BME280;35432;43.566;1.398;2023-02-04T01:11:10;101828.47;;;2.06;71.26
49541;BME280;35432;43.566;1.398;2023-02-04T01:13:35;101830.22;;;2.06;71.22
49541;BME280;35432;43.566;1.398;2023-02-04T01:16:01;101831.88;;;2.05;70.99
49541;BME280;35432;43.566;1.398;2023-02-04T01:18:26;101837.09;;;2.05;71.61
49541;BME280;35432;43.566;1.398;2023-02-04T01:20:51;101834.66;;;2.08;71.34
49541;BME280;35432;43.566;1.398;2023-02-04T01:23:17;101842.63;;;2.11;71.13
49541;BME280;35432;43.566;1.398;2023-02-04T01:25:42;101837.53;;;2.13;71.70
49541;BME280;35432;43.566;1.398;2023-02-04T01:28:07;101848.09;;;2.16;72.21
49541;BME280;35432;43.566;1.398;2023-02-04T01:30:33;101843.78;;;2.17;71.38
49541;BME280;35432;43.566;1.398;2023-02-04T01:32:58;101840.28;;;2.16;71.76
49541;BME280;35432;43.566;1.398;2023-02-04T01:35:24;101835.91;;;2.15;71.53
49541;BME280;35432;43.566;1.398;2023-02-04T01:37:49;101836.72;;;2.14;71.41
49541;BME280;35432;43.566;1.398;2023-02-04T01:40:15;101842.72;;;2.13;71.96
49541;BME280;35432;43.566;1.398;2023-02-04T01:42:40;101834.00;;;2.12;71.77
49541;BME280;35432;43.566;1.398;2023-02-04T01:45:06;101837.44;;;2.11;71.15
49541;BME280;35432;43.566;1.398;2023-02-04T01:47:32;101833.94;;;2.11;71.48
49541;BME280;35432;43.566;1.398;2023-02-04T01:49:58;101823.63;;;2.12;72.09
49541;BME280;35432;43.566;1.398;2023-02-04T01:52:24;101824.53;;;2.13;71.69
49541;BME280;35432;43.566;1.398;2023-02-04T01:54:50;101814.13;;;2.13;71.46
49541;BME280;35432;43.566;1.398;2023-02-04T01:57:17;101803.75;;;2.13;72.07
49541;BME280;35432;43.566;1.398;2023-02-04T01:59:44;101801.16;;;2.13;72.16
49541;BME280;35432;43.566;1.398;2023-02-04T02:02:36;101800.34;;;2.14;71.72
49541;BME280;35432;43.566;1.398;2023-02-04T02:05:02;101802.28;;;2.18;72.07
49541;BME280;35432;43.566;1.398;2023-02-04T02:07:27;101801.47;;;2.19;72.32
49541;BME280;35432;43.566;1.398;2023-02-04T02:09:52;101799.84;;;2.21;71.88
49541;BME280;35432;43.566;1.398;2023-02-04T02:12:18;101799.94;;;2.23;71.80
49541;BME280;35432;43.566;1.398;2023-02-04T02:14:43;101804.34;;;2.24;72.36
49541;BME280;35432;43.566;1.398;2023-02-04T02:17:09;101808.78;;;2.26;72.14
49541;BME280;35432;43.566;1.398;2023-02-04T02:19:35;101804.56;;;2.28;72.51
49541;BME280;35432;43.566;1.398;2023-02-04T02:22:06;101802.97;;;2.31;72.82
49541;BME280;35432;43.566;1.398;2023-02-04T02:24:34;101804.75;;;2.32;71.98
49541;BME280;35432;43.566;1.398;2023-02-04T02:27:03;101794.38;;;2.32;72.79
49541;BME280;35432;43.566;1.398;2023-02-04T02:29:31;101797.94;;;2.34;72.49
49541;BME280;35432;43.566;1.398;2023-02-04T02:31:57;101802.16;;;2.32;72.55
49541;BME280;35432;43.566;1.398;2023-02-04T02:34:24;101802.97;;;2.31;72.51
49541;BME280;35432;43.566;1.398;2023-02-04T02:36:50;101789.97;;;2.31;72.79
49541;BME280;35432;43.566;1.398;2023-02-04T02:39:16;101788.25;;;2.31;73.01
49541;BME280;35432;43.566;1.398;2023-02-04T02:41:42;101791.66;;;2.30;72.22
49541;BME280;35432;43.566;1.398;2023-02-04T02:44:09;101787.38;;;2.31;72.66
49541;BME280;35432;43.566;1.398;2023-02-04T02:46:35;101787.38;;;2.31;72.30
49541;BME280;35432;43.566;1.398;2023-02-04T02:49:01;101792.56;;;2.31;72.65
49541;BME280;35432;43.566;1.398;2023-02-04T02:51:27;101789.06;;;2.30;72.93
49541;BME280;35432;43.566;1.398;2023-02-04T02:53:52;101784.69;;;2.29;72.42
49541;BME280;35432;43.566;1.398;2023-02-04T02:56:18;101775.19;;;2.29;72.58
49541;BME280;35432;43.566;1.398;2023-02-04T02:58:44;101768.16;;;2.28;72.24
49541;BME280;35432;43.566;1.398;2023-02-04T03:01:10;101775.00;;;2.26;72.98
49541;BME280;35432;43.566;1.398;2023-02-04T03:03:39;101776.63;;;2.24;72.68
49541;BME280;35432;43.566;1.398;2023-02-04T03:06:10;101774.94;;;2.25;72.63
49541;BME280;35432;43.566;1.398;2023-02-04T03:08:37;101771.41;;;2.24;72.51
49541;BME280;35432;43.566;1.398;2023-02-04T03:11:03;101771.53;;;2.26;72.14
49541;BME280;35432;43.566;1.398;2023-02-04T03:13:29;101763.63;;;2.24;72.75
49541;BME280;35432;43.566;1.398;2023-02-04T03:15:55;101757.63;;;2.25;72.70
49541;BME280;35432;43.566;1.398;2023-02-04T03:18:21;101755.81;;;2.24;72.50
49541;BME280;35432;43.566;1.398;2023-02-04T03:20:48;101752.25;;;2.22;72.80
49541;BME280;35432;43.566;1.398;2023-02-04T03:23:14;101752.25;;;2.22;72.80
49541;BME280;35432;43.566;1.398;2023-02-04T03:25:40;101747.81;;;2.20;72.26
49541;BME280;35432;43.566;1.398;2023-02-04T03:28:05;101750.31;;;2.18;72.21
49541;BME280;35432;43.566;1.398;2023-02-04T03:30:31;101750.22;;;2.17;72.16
49541;BME280;35432;43.566;1.398;2023-02-04T03:32:56;101751.75;;;2.13;72.90
49541;BME280;35432;43.566;1.398;2023-02-04T03:35:22;101749.97;;;2.12;73.07
49541;BME280;35432;43.566;1.398;2023-02-04T03:37:48;101744.69;;;2.10;72.99
49541;BME280;35432;43.566;1.398;2023-02-04T03:40:14;101737.69;;;2.09;72.68
49541;BME280;35432;43.566;1.398;2023-02-04T03:42:39;101744.63;;;2.09;72.92
49541;BME280;35432;43.566;1.398;2023-02-04T03:45:05;101754.09;;;2.08;73.12
49541;BME280;35432;43.566;1.398;2023-02-04T03:47:30;101749.72;;;2.07;72.67
49541;BME280;35432;43.566;1.398;2023-02-04T03:49:56;101755.81;;;2.08;72.34
49541;BME280;35432;43.566;1.398;2023-02-04T03:52:21;101755.63;;;2.05;72.71
49541;BME280;35432;43.566;1.398;2023-02-04T03:54:46;101741.66;;;2.03;72.35
49541;BME280;35432;43.566;1.398;2023-02-04T03:57:12;101737.09;;;1.98;72.69
49541;BME280;35432;43.566;1.398;2023-02-04T03:59:39;101744.75;;;1.95;72.60
49541;BME280;35432;43.566;1.398;2023-02-04T04:02:05;101745.44;;;1.93;71.91
49541;BME280;35432;43.566;1.398;2023-02-04T04:04:30;101750.59;;;1.91;71.95
49541;BME280;35432;43.566;1.398;2023-02-04T04:06:56;101756.50;;;1.89;71.77
49541;BME280;35432;43.566;1.398;2023-02-04T04:09:21;101752.03;;;1.86;72.29
49541;BME280;35432;43.566;1.398;2023-02-04T04:11:46;101758.03;;;1.85;71.80
49541;BME280;35432;43.566;1.398;2023-02-04T04:14:12;101757.88;;;1.82;72.34
49541;BME280;35432;43.566;1.398;2023-02-04T04:16:37;101760.28;;;1.79;72.19
49541;BME280;35432;43.566;1.398;2023-02-04T04:19:03;101761.91;;;1.77;72.21
49541;BME280;35432;43.566;1.398;2023-02-04T04:21:28;101761.72;;;1.74;71.74
49541;BME280;35432;43.566;1.398;2023-02-04T04:23:54;101763.28;;;1.70;71.93
49541;BME280;35432;43.566;1.398;2023-02-04T04:26:19;101764.78;;;1.66;71.83
49541;BME280;35432;43.566;1.398;2023-02-04T04:28:44;101766.31;;;1.63;71.94
49541;BME280;35432;43.566;1.398;2023-02-04T04:31:10;101770.34;;;1.57;71.54
49541;BME280;35432;43.566;1.398;2023-02-04T04:33:35;101768.47;;;1.55;72.30
49541;BME280;35432;43.566;1.398;2023-02-04T04:36:01;101770.72;;;1.49;71.40
49541;BME280;35432;43.566;1.398;2023-02-04T04:38:26;101766.16;;;1.45;71.48
49541;BME280;35432;43.566;1.398;2023-02-04T04:40:52;101760.00;;;1.42;71.77
49541;BME280;35432;43.566;1.398;2023-02-04T04:43:17;101764.09;;;1.39;72.06
49541;BME280;35432;43.566;1.398;2023-02-04T04:45:43;101764.84;;;1.36;71.90
49541;BME280;35432;43.566;1.398;2023-02-04T04:48:09;101767.25;;;1.33;72.52
49541;BME280;35432;43.566;1.398;2023-02-04T04:50:34;101764.56;;;1.32;72.30
49541;BME280;35432;43.566;1.398;2023-02-04T04:52:59;101767.84;;;1.29;71.91
49541;BME280;35432;43.566;1.398;2023-02-04T04:55:25;101769.41;;;1.25;71.90
49541;BME280;35432;43.566;1.398;2023-02-04T04:57:50;101776.09;;;1.22;71.69
49541;BME280;35432;43.566;1.398;2023-02-04T05:00:17;101766.25;;;1.16;72.08
49541;BME280;35432;43.566;1.398;2023-02-04T05:02:43;101768.59;;;1.11;71.55
49541;BME280;35432;43.566;1.398;2023-02-04T05:05:09;101763.19;;;1.08;71.35
49541;BME280;35432;43.566;1.398;2023-02-04T05:07:35;101764.81;;;1.06;71.71
49541;BME280;35432;43.566;1.398;2023-02-04T05:10:01;101773.41;;;1.05;71.76
49541;BME280;35432;43.566;1.398;2023-02-04T05:12:26;101761.97;;;1.02;72.22
49541;BME280;35432;43.566;1.398;2023-02-04T05:14:52;101763.66;;;1.01;72.15
49541;BME280;35432;43.566;1.398;2023-02-04T05:17:17;101761.06;;;1.01;71.90
49541;BME280;35432;43.566;1.398;2023-02-04T05:19:43;101760.88;;;0.98;72.14
49541;BME280;35432;43.566;1.398;2023-02-04T05:22:08;101765.19;;;0.97;72.13
49541;BME280;35432;43.566;1.398;2023-02-04T05:24:33;101757.31;;;0.96;72.37
49541;BME280;35432;43.566;1.398;2023-02-04T05:26:59;101765.09;;;0.96;71.87
49541;BME280;35432;43.566;1.398;2023-02-04T05:29:24;101771.06;;;0.95;72.18
49541;BME280;35432;43.566;1.398;2023-02-04T05:31:50;101782.25;;;0.94;72.40
49541;BME280;35432;43.566;1.398;2023-02-04T05:34:15;101780.16;;;0.73;72.17
49541;BME280;35432;43.566;1.398;2023-02-04T05:36:41;101769.41;;;0.67;72.63
49541;BME280;35432;43.566;1.398;2023-02-04T05:39:06;101778.00;;;0.66;73.12
49541;BME280;35432;43.566;1.398;2023-02-04T05:41:31;101777.91;;;0.64;73.19
49541;BME280;35432;43.566;1.398;2023-02-04T05:43:57;101784.06;;;0.66;73.58
49541;BME280;35432;43.566;1.398;2023-02-04T05:46:22;101773.88;;;0.69;73.17
49541;BME280;35432;43.566;1.398;2023-02-04T05:48:48;101764.59;;;0.73;73.03
49541;BME280;35432;43.566;1.398;2023-02-04T05:51:13;101776.06;;;0.77;72.73
49541;BME280;35432;43.566;1.398;2023-02-04T05:53:38;101775.16;;;0.76;73.13
49541;BME280;35432;43.566;1.398;2023-02-04T05:56:04;101775.16;;;0.76;72.85
49541;BME280;35432;43.566;1.398;2023-02-04T05:58:29;101779.47;;;0.76;72.41
49541;BME280;35432;43.566;1.398;2023-02-04T06:00:58;101779.47;;;0.76;72.42
49541;BME280;35432;43.566;1.398;2023-02-04T06:03:26;101779.34;;;0.74;72.33
49541;BME280;35432;43.566;1.398;2023-02-04T06:05:51;101779.97;;;0.70;72.08
49541;BME280;35432;43.566;1.398;2023-02-04T06:08:17;101779.00;;;0.68;72.00
49541;BME280;35432;43.566;1.398;2023-02-04T06:10:42;101788.38;;;0.66;71.86
49541;BME280;35432;43.566;1.398;2023-02-04T06:13:07;101786.47;;;0.63;72.21
49541;BME280;35432;43.566;1.398;2023-02-04T06:15:33;101795.75;;;0.60;71.67
49541;BME280;35432;43.566;1.398;2023-02-04T06:17:58;101787.72;;;0.55;71.47
49541;BME280;35432;43.566;1.398;2023-02-04T06:20:24;101790.81;;;0.49;72.09
49541;BME280;35432;43.566;1.398;2023-02-04T06:22:49;101799.41;;;0.48;72.01
49541;BME280;35432;43.566;1.398;2023-02-04T06:25:19;101804.47;;;0.47;72.11
49541;BME280;35432;43.566;1.398;2023-02-04T06:27:44;101805.28;;;0.46;71.60
49541;BME280;35432;43.566;1.398;2023-02-04T06:30:10;101803.41;;;0.43;71.96
49541;BME280;35432;43.566;1.398;2023-02-04T06:32:36;101802.41;;;0.41;71.53
49541;BME280;35432;43.566;1.398;2023-02-04T06:35:01;101808.22;;;0.37;71.73
49541;BME280;35432;43.566;1.398;2023-02-04T06:37:27;101810.59;;;0.34;71.80
49541;BME280;35432;43.566;1.398;2023-02-04T06:39:52;101814.69;;;0.30;71.16
49541;BME280;35432;43.566;1.398;2023-02-04T06:42:19;101819.69;;;0.27;72.01
49541;BME280;35432;43.566;1.398;2023-02-04T06:44:44;101825.56;;;0.24;71.72
49541;BME280;35432;43.566;1.398;2023-02-04T06:47:10;101820.19;;;0.21;71.74
49541;BME280;35432;43.566;1.398;2023-02-04T06:49:35;101823.59;;;0.20;71.82
49541;BME280;35432;43.566;1.398;2023-02-04T06:52:01;101831.97;;;0.16;71.74
49541;BME280;35432;43.566;1.398;2023-02-04T06:54:26;101823.19;;;0.14;71.70
49541;BME280;35432;43.566;1.398;2023-02-04T06:56:51;101818.81;;;0.13;71.50
49541;BME280;35432;43.566;1.398;2023-02-04T06:59:17;101819.59;;;0.12;71.63
49541;BME280;35432;43.566;1.398;2023-02-04T07:01:42;101826.38;;;0.10;71.89
49541;BME280;35432;43.566;1.398;2023-02-04T07:04:08;101821.97;;;0.09;71.90
49541;BME280;35432;43.566;1.398;2023-02-04T07:06:33;101830.56;;;0.08;71.54
49541;BME280;35432;43.566;1.398;2023-02-04T07:08:59;101822.78;;;0.08;71.68
49541;BME280;35432;43.566;1.398;2023-02-04T07:11:24;101834.06;;;0.08;71.73
49541;BME280;35432;43.566;1.398;2023-02-04T07:13:50;101835.75;;;0.08;72.19
49541;BME280;35432;43.566;1.398;2023-02-04T07:16:15;101841.84;;;0.08;71.78
49541;BME280;35432;43.566;1.398;2023-02-04T07:18:40;101832.34;;;0.09;72.27
49541;BME280;35432;43.566;1.398;2023-02-04T07:21:06;101830.66;;;0.09;72.19
49541;BME280;35432;43.566;1.398;2023-02-04T07:23:31;101828.97;;;0.10;71.90
49541;BME280;35432;43.566;1.398;2023-02-04T07:25:56;101831.56;;;0.10;71.78
49541;BME280;35432;43.566;1.398;2023-02-04T07:28:24;101825.56;;;0.11;71.84
49541;BME280;35432;43.566;1.398;2023-02-04T07:30:49;101828.28;;;0.12;72.08
49541;BME280;35432;43.566;1.398;2023-02-04T07:33:15;101834.44;;;0.14;71.70
49541;BME280;35432;43.566;1.398;2023-02-04T07:35:40;101828.56;;;0.17;72.04
49541;BME280;35432;43.566;1.398;2023-02-04T07:38:06;101836.72;;;0.23;72.13
49541;BME280;35432;43.566;1.398;2023-02-04T07:40:31;101836.31;;;0.31;71.93
49541;BME280;35432;43.566;1.398;2023-02-04T07:42:57;101842.78;;;0.37;72.38
49541;BME280;35432;43.566;1.398;2023-02-04T07:45:22;101850.25;;;0.46;72.16
49541;BME280;35432;43.566;1.398;2023-02-04T07:47:48;101854.19;;;0.54;72.02
49541;BME280;35432;43.566;1.398;2023-02-04T07:50:14;101849.50;;;0.62;71.94
49541;BME280;35432;43.566;1.398;2023-02-04T07:52:40;101848.47;;;0.74;72.04
49541;BME280;35432;43.566;1.398;2023-02-04T07:55:06;101842.44;;;0.88;71.79
49541;BME280;35432;43.566;1.398;2023-02-04T07:57:32;101843.56;;;1.07;71.92
49541;BME280;35432;43.566;1.398;2023-02-04T07:59:57;101843.94;;;1.28;72.32
49541;BME280;35432;43.566;1.398;2023-02-04T08:02:23;101845.56;;;1.56;72.12
49541;BME280;35432;43.566;1.398;2023-02-04T08:04:50;101844.91;;;1.90;71.74
49541;BME280;35432;43.566;1.398;2023-02-04T08:07:15;101847.56;;;2.38;71.72
49541;BME280;35432;43.566;1.398;2023-02-04T08:09:41;101842.56;;;3.08;70.61
49541;BME280;35432;43.566;1.398;2023-02-04T08:12:06;101846.47;;;4.04;69.85
49541;BME280;35432;43.566;1.398;2023-02-04T08:14:31;101838.47;;;5.15;68.45
49541;BME280;35432;43.566;1.398;2023-02-04T08:16:57;101838.91;;;6.55;68.22
49541;BME280;35432;43.566;1.398;2023-02-04T08:19:22;101838.69;;;8.29;69.19
49541;BME280;35432;43.566;1.398;2023-02-04T08:21:48;101830.53;;;10.15;69.04
49541;BME280;35432;43.566;1.398;2023-02-04T08:24:14;101815.41;;;11.91;66.80
49541;BME280;35432;43.566;1.398;2023-02-04T08:26:41;101817.38;;;13.46;64.00
49541;BME280;35432;43.566;1.398;2023-02-04T08:29:07;101806.75;;;14.86;61.24
49541;BME280;35432;43.566;1.398;2023-02-04T08:31:33;101809.50;;;16.04;59.38
49541;BME280;35432;43.566;1.398;2023-02-04T08:33:58;101813.50;;;17.14;57.12
49541;BME280;35432;43.566;1.398;2023-02-04T08:36:24;101809.97;;;18.15;55.24
49541;BME280;35432;43.566;1.398;2023-02-04T08:38:49;101804.34;;;19.10;53.53
49541;BME280;35432;43.566;1.398;2023-02-04T08:41:14;101808.31;;;19.96;51.47
49541;BME280;35432;43.566;1.398;2023-02-04T08:43:40;101804.09;;;20.72;49.62
49541;BME280;35432;43.566;1.398;2023-02-04T08:46:05;101804.31;;;21.41;48.05
49541;BME280;35432;43.566;1.398;2023-02-04T08:48:31;101802.03;;;21.97;46.77
49541;BME280;35432;43.566;1.398;2023-02-04T08:50:57;101810.38;;;22.50;45.49
49541;BME280;35432;43.566;1.398;2023-02-04T08:53:22;101789.06;;;23.04;44.60
49541;BME280;35432;43.566;1.398;2023-02-04T08:55:47;101786.63;;;23.52;43.50
49541;BME280;35432;43.566;1.398;2023-02-04T08:58:13;101793.03;;;24.00;42.53
49541;BME280;35432;43.566;1.398;2023-02-04T09:00:38;101795.03;;;24.44;41.76
49541;BME280;35432;43.566;1.398;2023-02-04T09:03:04;101777.38;;;24.83;41.10
49541;BME280;35432;43.566;1.398;2023-02-04T09:05:29;101795.56;;;25.22;40.52
49541;BME280;35432;43.566;1.398;2023-02-04T09:07:54;101788.91;;;25.54;40.01
49541;BME280;35432;43.566;1.398;2023-02-04T09:10:20;101787.56;;;25.85;39.20
49541;BME280;35432;43.566;1.398;2023-02-04T09:12:45;101779.03;;;26.15;38.68
49541;BME280;35432;43.566;1.398;2023-02-04T09:15:11;101793.84;;;26.46;38.55
49541;BME280;35432;43.566;1.398;2023-02-04T09:17:37;101796.78;;;26.79;38.01
49541;BME280;35432;43.566;1.398;2023-02-04T09:20:03;101787.94;;;26.95;37.52
49541;BME280;35432;43.566;1.398;2023-02-04T09:22:29;101794.13;;;27.16;37.38
49541;BME280;35432;43.566;1.398;2023-02-04T09:24:55;101784.59;;;27.44;37.16
49541;BME280;35432;43.566;1.398;2023-02-04T09:27:20;101784.00;;;27.74;36.99
49541;BME280;35432;43.566;1.398;2023-02-04T09:29:46;101786.34;;;27.98;36.55
49541;BME280;35432;43.566;1.398;2023-02-04T09:32:11;101776.50;;;28.31;36.36
49541;BME280;35432;43.566;1.398;2023-02-04T09:34:36;101777.91;;;28.54;36.33
49541;BME280;35432;43.566;1.398;2023-02-04T09:37:02;101773.50;;;28.85;35.92
49541;BME280;35432;43.566;1.398;2023-02-04T09:39:27;101778.81;;;29.03;35.43
49541;BME280;35432;43.566;1.398;2023-02-04T09:41:53;101780.63;;;29.18;35.16
49541;BME280;35432;43.566;1.398;2023-02-04T09:44:20;101775.50;;;29.44;35.00
49541;BME280;35432;43.566;1.398;2023-02-04T09:46:49;101780.59;;;29.65;34.01
49541;BME280;35432;43.566;1.398;2023-02-04T09:49:16;101772.13;;;29.86;34.19
49541;BME280;35432;43.566;1.398;2023-02-04T09:51:42;101772.59;;;29.78;33.72
49541;BME280;35432;43.566;1.398;2023-02-04T09:54:15;101772.50;;;29.79;31.40
49541;BME280;35432;43.566;1.398;2023-02-04T09:56:41;101773.97;;;30.14;33.37
49541;BME280;35432;43.566;1.398;2023-02-04T09:59:11;101769.59;;;30.26;32.67
49541;BME280;35432;43.566;1.398;2023-02-04T10:01:38;101772.13;;;30.44;33.32
49541;BME280;35432;43.566;1.398;2023-02-04T10:04:03;101776.78;;;30.56;32.88
49541;BME280;35432;43.566;1.398;2023-02-04T10:06:29;101774.81;;;30.58;32.54
49541;BME280;35432;43.566;1.398;2023-02-04T10:08:55;101767.84;;;30.69;32.61
49541;BME280;35432;43.566;1.398;2023-02-04T10:11:22;101771.03;;;30.75;32.46
49541;BME280;35432;43.566;1.398;2023-02-04T10:13:52;101760.97;;;30.90;32.57
49541;BME280;35432;43.566;1.398;2023-02-04T10:16:27;101761.78;;;31.05;30.36
49541;BME280;35432;43.566;1.398;2023-02-04T10:19:06;101758.03;;;30.93;26.48
49541;BME280;35432;43.566;1.398;2023-02-04T10:21:35;101761.31;;;30.99;31.32
49541;BME280;35432;43.566;1.398;2023-02-04T10:24:03;101759.47;;;30.99;31.51
49541;BME280;35432;43.566;1.398;2023-02-04T10:26:31;101764.88;;;30.86;32.39
49541;BME280;35432;43.566;1.398;2023-02-04T10:29:02;101768.53;;;31.00;31.09
49541;BME280;35432;43.566;1.398;2023-02-04T10:34:08;101762.28;;;30.98;30.26
49541;BME280;35432;43.566;1.398;2023-02-04T10:36:34;101755.75;;;30.87;32.24
49541;BME280;35432;43.566;1.398;2023-02-04T10:39:24;101762.78;;;30.77;31.60
49541;BME280;35432;43.566;1.398;2023-02-04T10:41:53;101755.66;;;30.89;32.75
49541;BME280;35432;43.566;1.398;2023-02-04T10:44:30;101757.47;;;30.88;30.59
49541;BME280;35432;43.566;1.398;2023-02-04T10:49:25;101764.63;;;31.04;32.32
49541;BME280;35432;43.566;1.398;2023-02-04T10:51:51;101760.28;;;31.14;31.59
49541;BME280;35432;43.566;1.398;2023-02-04T10:54:19;101759.09;;;30.78;30.54
49541;BME280;35432;43.566;1.398;2023-02-04T10:59:36;101753.69;;;30.34;32.59
49541;BME280;35432;43.566;1.398;2023-02-04T11:02:25;101751.78;;;30.07;30.82
49541;BME280;35432;43.566;1.398;2023-02-04T11:04:55;101756.00;;;29.97;33.19
49541;BME280;35432;43.566;1.398;2023-02-04T11:07:21;101750.31;;;30.02;33.47
49541;BME280;35432;43.566;1.398;2023-02-04T11:09:47;101744.84;;;29.73;33.38
49541;BME280;35432;43.566;1.398;2023-02-04T11:12:41;101740.50;;;29.09;32.69
49541;BME280;35432;43.566;1.398;2023-02-04T11:15:40;101733.69;;;28.70;33.16
49541;BME280;35432;43.566;1.398;2023-02-04T11:20:50;101740.38;;;27.45;36.15
49541;BME280;35432;43.566;1.398;2023-02-04T11:26:17;101744.06;;;25.72;35.44
49541;BME280;35432;43.566;1.398;2023-02-04T11:33:46;101737.25;;;24.05;41.66
49541;BME280;35432;43.566;1.398;2023-02-04T11:36:13;101739.94;;;23.55;42.48
49541;BME280;35432;43.566;1.398;2023-02-04T11:38:45;101744.63;;;22.94;41.65
49541;BME280;35432;43.566;1.398;2023-02-04T11:41:24;101752.59;;;22.37;42.12
49541;BME280;35432;43.566;1.398;2023-02-04T11:43:52;101746.47;;;22.02;44.91
49541;BME280;35432;43.566;1.398;2023-02-04T11:46:18;101743.28;;;21.52;46.03
49541;BME280;35432;43.566;1.398;2023-02-04T11:48:44;101743.06;;;20.89;46.57
49541;BME280;35432;43.566;1.398;2023-02-04T11:51:21;101739.13;;;20.24;45.52
49541;BME280;35432;43.566;1.398;2023-02-04T11:53:50;101736.56;;;19.71;48.03
49541;BME280;35432;43.566;1.398;2023-02-04T11:56:17;101727.47;;;19.31;49.38
49541;BME280;35432;43.566;1.398;2023-02-04T11:58:43;101737.75;;;19.01;50.16
49541;BME280;35432;43.566;1.398;2023-02-04T12:01:19;101736.34;;;18.75;47.10
49541;BME280;35432;43.566;1.398;2023-02-04T12:03:50;101732.97;;;18.60;50.84
49541;BME280;35432;43.566;1.398;2023-02-04T12:06:30;101732.28;;;18.46;49.99
49541;BME280;35432;43.566;1.398;2023-02-04T12:09:27;101721.19;;;18.08;48.84
49541;BME280;35432;43.566;1.398;2023-02-04T12:12:01;101719.50;;;17.96;51.16
49541;BME280;35432;43.566;1.398;2023-02-04T12:14:31;101717.09;;;17.76;45.03
49541;BME280;35432;43.566;1.398;2023-02-04T12:16:57;101711.88;;;17.65;52.53
49541;BME280;35432;43.566;1.398;2023-02-04T12:19:23;101712.97;;;17.42;52.64
49541;BME280;35432;43.566;1.398;2023-02-04T12:21:48;101707.88;;;17.17;53.04
49541;BME280;35432;43.566;1.398;2023-02-04T12:24:13;101712.44;;;17.01;53.53
49541;BME280;35432;43.566;1.398;2023-02-04T12:26:39;101711.66;;;16.82;53.79
49541;BME280;35432;43.566;1.398;2023-02-04T12:29:04;101709.13;;;16.65;54.14
49541;BME280;35432;43.566;1.398;2023-02-04T12:31:30;101709.22;;;16.46;54.17
49541;BME280;35432;43.566;1.398;2023-02-04T12:33:56;101695.97;;;16.39;54.45
49541;BME280;35432;43.566;1.398;2023-02-04T12:36:22;101698.69;;;16.29;54.66
49541;BME280;35432;43.566;1.398;2023-02-04T12:38:47;101693.38;;;16.20;54.77
49541;BME280;35432;43.566;1.398;2023-02-04T12:41:13;101689.88;;;16.10;55.18
49541;BME280;35432;43.566;1.398;2023-02-04T12:43:38;101682.81;;;16.01;55.20
49541;BME280;35432;43.566;1.398;2023-02-04T12:46:04;101691.72;;;15.99;55.01
49541;BME280;35432;43.566;1.398;2023-02-04T12:48:29;101685.50;;;15.98;55.17
49541;BME280;35432;43.566;1.398;2023-02-04T12:50:55;101687.31;;;15.90;55.08
49541;BME280;35432;43.566;1.398;2023-02-04T12:53:20;101682.00;;;15.81;55.21
49541;BME280;35432;43.566;1.398;2023-02-04T12:55:46;101672.25;;;15.76;55.22
49541;BME280;35432;43.566;1.398;2023-02-04T12:58:11;101674.91;;;15.76;55.49
49541;BME280;35432;43.566;1.398;2023-02-04T13:00:37;101665.19;;;15.74;55.45
49541;BME280;35432;43.566;1.398;2023-02-04T13:03:03;101661.66;;;15.72;55.43
49541;BME280;35432;43.566;1.398;2023-02-04T13:05:29;101667.00;;;15.61;55.53
49541;BME280;35432;43.566;1.398;2023-02-04T13:07:55;101651.09;;;15.53;55.87
49541;BME280;35432;43.566;1.398;2023-02-04T13:10:21;101641.34;;;15.54;56.40
49541;BME280;35432;43.566;1.398;2023-02-04T13:12:48;101637.81;;;15.48;56.18